Main page
METAR-TAF:

METAR-TAF

Airports :

P11-b, Netherlands

Oil platform

latitude: 52-21-36N, longitude: 3-20-30E, elevation: 24 m

Current weather observation

The report was made 19 minutes ago, at 23:55 UTC
Wind 7 kt from the West/Southwest, varying between South/Southwest and Northwest
Temperature 15°C
Humidity 72%
Pressure 1020 hPa
Visibility 10 km or more
Few clouds at a height of 2300 ft
Scattered clouds at a height of 4600 ft

METAR: EHPG 192355Z AUTO 24007KT 210V310 9999 FEW023 SCT046 15/10 Q1020

Time: 02:14 (00:14 UTC)


TAF: missing

Weather observations and forecasts of more than 4000 airports (METAR and TAF reports).

The available stations are represented by yellow and red dots on the map.

Hover mouse over dot to see the name of the station.

Then click to see weather observations and forecasts.

To change the map : click on the green buttons with a black cross to zoom in, on the green button with a dash to zoom out, or on the green arrows for adjacent maps.


METAR-TAF: